TimeCDT,TemperatureF,Dew PointF,Humidity,Sea Level PressureIn,VisibilityMPH,Wind Direction,Wind SpeedMPH,Gust SpeedMPH,PrecipitationIn,Events,Conditions,WindDirDegrees,DateUTC
12:57 AM,69.1,60.1,73,29.98,10.0,SSE,11.5,-,N/A,,Clear,160,2013-05-27 05:57:00
1:57 AM,69.1,62.1,78,29.98,10.0,SSE,9.2,-,N/A,,Mostly Cloudy,160,2013-05-27 06:57:00
2:57 AM,69.1,63.0,81,29.96,10.0,SSE,11.5,-,N/A,,Mostly Cloudy,160,2013-05-27 07:57:00
3:57 AM,69.1,64.0,84,29.96,10.0,SSE,9.2,-,N/A,,Scattered Clouds,150,2013-05-27 08:57:00
4:57 AM,68.0,64.0,87,29.95,10.0,SE,9.2,-,N/A,,Clear,130,2013-05-27 09:57:00
5:57 AM,68.0,64.9,90,29.94,10.0,SSE,10.4,-,N/A,,Clear,160,2013-05-27 10:57:00
6:57 AM,69.1,64.9,87,29.94,10.0,SSE,10.4,-,N/A,,Scattered Clouds,150,2013-05-27 11:57:00
7:29 AM,71.6,66.2,83,29.98,10.0,South,12.7,-,N/A,,Mostly Cloudy,170,2013-05-27 12:29:00
7:57 AM,72.0,66.0,81,29.94,10.0,South,12.7,-,N/A,,Overcast,170,2013-05-27 12:57:00
8:57 AM,73.9,66.0,76,29.94,10.0,South,15.0,27.6,N/A,,Overcast,190,2013-05-27 13:57:00
9:57 AM,75.9,66.0,71,29.93,10.0,South,18.4,27.6,N/A,,Overcast,190,2013-05-27 14:57:00
10:57 AM,79.0,66.9,66,29.91,10.0,SSW,18.4,29.9,N/A,,Mostly Cloudy,200,2013-05-27 15:57:00
11:00 AM,78.8,66.2,65,29.95,10.0,South,24.2,28.8,N/A,,Scattered Clouds,180,2013-05-27 16:00:00
11:10 AM,80.6,66.2,61,29.95,10.0,South,19.6,29.9,N/A,,Mostly Cloudy,180,2013-05-27 16:10:00
11:26 AM,80.6,66.2,61,29.96,10.0,South,19.6,28.8,N/A,,Scattered Clouds,190,2013-05-27 16:26:00
11:33 AM,80.6,66.2,61,29.95,10.0,South,25.3,33.4,N/A,,Mostly Cloudy,180,2013-05-27 16:33:00
11:45 AM,80.6,66.2,61,29.96,10.0,SSW,18.4,28.8,N/A,,Scattered Clouds,210,2013-05-27 16:45:00
11:57 AM,82.4,66.2,58,29.97,10.0,South,19.6,28.8,N/A,,Mostly Cloudy,190,2013-05-27 16:57:00
11:59 AM,82.0,66.0,58,29.93,10.0,South,19.6,28.8,N/A,,Mostly Cloudy,190,2013-05-27 16:59:00
12:08 PM,80.6,66.2,61,29.97,10.0,South,17.3,25.3,N/A,,Mostly Cloudy,180,2013-05-27 17:08:00
12:57 PM,84.0,66.0,55,29.91,10.0,South,24.2,28.8,N/A,,Partly Cloudy,180,2013-05-27 17:57:00
1:57 PM,82.9,64.0,53,29.90,10.0,South,19.6,29.9,N/A,,Partly Cloudy,190,2013-05-27 18:57:00
2:57 PM,84.0,64.0,51,29.86,10.0,South,20.7,26.5,N/A,,Clear,170,2013-05-27 19:57:00
3:57 PM,82.9,66.0,56,29.85,10.0,South,19.6,28.8,N/A,,Clear,180,2013-05-27 20:57:00
4:57 PM,81.0,64.9,58,29.84,10.0,SSE,13.8,-,N/A,,Partly Cloudy,160,2013-05-27 21:57:00
5:57 PM,80.1,64.9,60,29.85,10.0,South,12.7,21.9,N/A,,Overcast,170,2013-05-27 22:57:00
6:57 PM,79.0,64.9,62,29.84,10.0,SSE,12.7,-,N/A,,Mostly Cloudy,160,2013-05-27 23:57:00
7:57 PM,78.1,64.0,62,29.82,10.0,South,15.0,21.9,N/A,,Partly Cloudy,170,2013-05-28 00:57:00
8:57 PM,75.0,63.0,66,29.81,10.0,SSE,15.0,21.9,N/A,,Clear,160,2013-05-28 01:57:00
9:57 PM,73.9,63.0,68,29.84,10.0,South,16.1,24.2,N/A,,Partly Cloudy,170,2013-05-28 02:57:00
10:57 PM,73.9,63.0,68,29.83,10.0,South,15.0,26.5,N/A,,Clear,170,2013-05-28 03:57:00
11:57 PM,73.9,64.0,71,29.83,10.0,South,15.0,21.9,N/A,,Clear,170,2013-05-28 04:57:00